createdAt,value
2017-08-04T00:00:14.723Z,13.47
2017-08-04T00:01:24.997Z,13.39
2017-08-04T00:02:35.580Z,13.45
2017-08-04T00:03:45.854Z,13.42
2017-08-04T00:04:56.132Z,13.43
2017-08-04T00:06:05.778Z,13.4
2017-08-04T00:07:16.046Z,13.37
2017-08-04T00:08:26.001Z,13.31
2017-08-04T00:09:35.959Z,13.33
2017-08-04T00:10:45.911Z,13.33
2017-08-04T00:11:55.865Z,13.31
2017-08-04T00:13:05.504Z,13.3
2017-08-04T00:14:15.777Z,13.31
2017-08-04T00:15:26.045Z,13.39
2017-08-04T00:16:35.697Z,13.36
2017-08-04T00:17:45.663Z,13.36
2017-08-04T00:18:55.945Z,13.37
2017-08-04T00:20:06.212Z,13.28
2017-08-04T00:21:16.483Z,13.26
2017-08-04T00:22:26.773Z,13.28
2017-08-04T00:23:36.726Z,13.3
2017-08-04T00:24:46.995Z,13.4
2017-08-04T00:25:56.959Z,13.39
2017-08-04T00:27:07.229Z,13.23
2017-08-04T00:28:17.500Z,13.27
2017-08-04T00:29:27.143Z,13.26
2017-08-04T00:30:37.414Z,13.21
2017-08-04T00:31:47.682Z,13.27
2017-08-04T00:32:57.948Z,13.33
2017-08-04T00:34:08.224Z,13.36
2017-08-04T00:35:18.177Z,13.27
2017-08-04T00:36:28.444Z,13.27
2017-08-04T00:37:38.400Z,13.28
2017-08-04T00:38:48.360Z,13.21
2017-08-04T00:39:58.309Z,13.28
2017-08-04T00:41:08.577Z,13.3
2017-08-04T00:42:18.850Z,13.27
2017-08-04T00:43:29.118Z,13.2
2017-08-04T00:44:39.078Z,13.24
2017-08-04T00:45:49.351Z,13.4
2017-08-04T00:46:59.300Z,13.27
2017-08-04T00:48:09.569Z,13.27
2017-08-04T00:49:19.841Z,13.31
2017-08-04T00:50:29.802Z,13.26
2017-08-04T00:51:40.071Z,13.39
2017-08-04T00:52:50.340Z,13.21
2017-08-04T00:53:59.978Z,13.27
2017-08-04T00:55:10.251Z,13.33
2017-08-04T00:56:20.528Z,13.36
2017-08-04T00:57:30.795Z,13.31
2017-08-04T00:58:41.061Z,13.36
2017-08-04T00:59:51.334Z,13.33
2017-08-04T01:01:01.286Z,13.42
2017-08-04T01:02:11.551Z,13.3
2017-08-04T01:03:21.822Z,13.33
2017-08-04T01:04:32.089Z,13.33
2017-08-04T01:05:42.357Z,13.4
2017-08-04T01:06:52.624Z,13.37
2017-08-04T01:08:02.895Z,13.45
2017-08-04T01:09:12.225Z,13.33
2017-08-04T01:10:22.501Z,13.31
2017-08-04T01:11:32.773Z,13.37
2017-08-04T01:12:43.042Z,13.4
2017-08-04T01:13:52.995Z,13.49
2017-08-04T01:15:02.954Z,13.4
2017-08-04T01:16:12.909Z,13.49
2017-08-04T01:17:23.178Z,13.4
2017-08-04T01:18:33.442Z,13.42
2017-08-04T01:19:43.394Z,13.36
2017-08-04T01:20:53.660Z,13.46
2017-08-04T01:22:03.935Z,13.52
2017-08-04T01:23:13.890Z,13.39
2017-08-04T01:24:24.163Z,13.36
2017-08-04T01:25:34.127Z,13.45
2017-08-04T01:26:44.086Z,13.45
2017-08-04T01:27:54.357Z,13.39
2017-08-04T01:29:04.633Z,13.36
2017-08-04T01:30:14.588Z,13.33
2017-08-04T01:31:24.858Z,13.39
2017-08-04T01:32:35.150Z,13.37
2017-08-04T01:33:45.109Z,13.46
2017-08-04T01:34:55.375Z,13.36
2017-08-04T01:36:05.657Z,13.43
2017-08-04T01:37:15.620Z,13.52
2017-08-04T01:38:25.886Z,13.4
2017-08-04T01:39:36.163Z,13.36
2017-08-04T01:40:46.122Z,13.43
2017-08-04T01:41:56.403Z,13.43
2017-08-04T01:43:06.676Z,13.4
2017-08-04T01:44:16.638Z,13.5
2017-08-04T01:45:26.905Z,13.4
2017-08-04T01:46:37.179Z,13.43
2017-08-04T01:47:47.449Z,13.36
2017-08-04T01:48:57.713Z,13.47
2017-08-04T01:50:07.674Z,13.43
2017-08-04T01:51:17.969Z,13.37
2017-08-04T01:52:27.927Z,13.43
2017-08-04T01:53:38.201Z,13.46
2017-08-04T01:54:48.158Z,13.47
2017-08-04T01:55:58.429Z,13.43
2017-08-04T01:57:08.695Z,13.46
2017-08-04T01:58:18.643Z,13.42
2017-08-04T01:59:28.915Z,13.31
2017-08-04T02:00:39.191Z,13.45
2017-08-04T02:01:49.457Z,13.37
2017-08-04T02:02:59.747Z,13.4
2017-08-04T02:04:10.031Z,13.47
2017-08-04T02:05:20.297Z,13.52
2017-08-04T02:06:30.251Z,13.46
2017-08-04T02:07:40.517Z,13.45
2017-08-04T02:08:50.792Z,13.42
2017-08-04T02:10:00.758Z,13.4
2017-08-04T02:11:11.030Z,13.37
2017-08-04T02:12:20.984Z,13.39
2017-08-04T02:13:30.940Z,13.52
2017-08-04T02:14:41.210Z,13.4
2017-08-04T02:15:51.481Z,13.39
2017-08-04T02:17:01.851Z,13.45
2017-08-04T02:18:11.806Z,13.46
2017-08-04T02:19:22.073Z,13.39
2017-08-04T02:20:32.374Z,13.47
2017-08-04T02:21:42.336Z,13.47
2017-08-04T02:22:52.608Z,13.49
2017-08-04T02:24:02.559Z,13.46
2017-08-04T02:25:12.836Z,13.42
2017-08-04T02:26:23.102Z,13.42
2017-08-04T02:27:33.368Z,13.45
2017-08-04T02:28:43.334Z,13.47
2017-08-04T02:29:53.607Z,13.42
2017-08-04T02:31:03.559Z,13.45
2017-08-04T02:32:13.832Z,13.3
2017-08-04T02:33:23.474Z,13.4
2017-08-04T02:34:33.742Z,13.39
2017-08-04T02:35:44.015Z,13.46
2017-08-04T02:36:54.290Z,13.43
2017-08-04T02:38:04.576Z,13.43
2017-08-04T02:39:14.849Z,13.36
2017-08-04T02:40:25.131Z,13.42
2017-08-04T02:41:35.090Z,13.43
2017-08-04T02:42:45.048Z,13.4
2017-08-04T02:43:55.321Z,13.4
2017-08-04T02:45:05.288Z,13.46
2017-08-04T02:46:15.563Z,13.47
2017-08-04T02:47:25.835Z,13.43
2017-08-04T02:48:35.798Z,13.4
2017-08-04T02:49:46.078Z,13.46
2017-08-04T02:50:56.347Z,13.4
2017-08-04T02:52:06.621Z,13.39
2017-08-04T02:53:16.905Z,13.46
2017-08-04T02:54:27.170Z,13.46
2017-08-04T02:55:37.123Z,13.47
2017-08-04T02:56:47.396Z,13.49
2017-08-04T02:57:59.691Z,13.4
2017-08-04T02:59:09.653Z,13.46
2017-08-04T03:00:19.926Z,13.42
2017-08-04T03:01:30.198Z,13.47
2017-08-04T03:02:40.465Z,13.43
2017-08-04T03:03:50.738Z,13.39
2017-08-04T03:05:00.694Z,13.31
2017-08-04T03:06:10.645Z,13.39
2017-08-04T03:07:20.597Z,13.46
2017-08-04T03:08:30.553Z,13.47
2017-08-04T03:09:40.507Z,13.31
2017-08-04T03:10:50.779Z,13.45
2017-08-04T03:12:01.054Z,13.31
2017-08-04T03:13:11.012Z,13.31
2017-08-04T03:14:21.283Z,13.33
2017-08-04T03:15:33.555Z,13.39
2017-08-04T03:16:43.204Z,13.3
2017-08-04T03:17:53.473Z,13.28
2017-08-04T03:19:03.430Z,13.3
2017-08-04T03:20:13.700Z,13.33
2017-08-04T03:21:23.662Z,13.42
2017-08-04T03:22:33.945Z,13.42
2017-08-04T03:23:44.215Z,13.33
2017-08-04T03:24:54.482Z,13.36
2017-08-04T03:26:04.767Z,13.37
2017-08-04T03:27:14.726Z,13.33
2017-08-04T03:28:24.991Z,13.37
2017-08-04T03:29:35.263Z,13.27
2017-08-04T03:30:45.543Z,13.39
2017-08-04T03:31:55.814Z,13.37
2017-08-04T03:33:06.019Z,13.33
2017-08-04T03:34:15.983Z,13.33
2017-08-04T03:35:26.252Z,13.37
2017-08-04T03:36:36.521Z,13.24
2017-08-04T03:37:46.833Z,13.31
2017-08-04T03:38:57.100Z,13.36
2017-08-04T03:40:07.385Z,13.36
2017-08-04T03:41:17.341Z,13.42
2017-08-04T03:42:27.296Z,13.37
2017-08-04T03:43:37.565Z,13.39
2017-08-04T03:44:47.836Z,13.3
2017-08-04T03:45:57.791Z,13.31
2017-08-04T03:47:08.061Z,13.37
2017-08-04T03:48:18.328Z,13.27
2017-08-04T03:49:28.601Z,13.31
2017-08-04T03:50:38.244Z,13.36
2017-08-04T03:51:48.512Z,13.37
2017-08-04T03:52:58.792Z,13.39
2017-08-04T03:54:08.746Z,13.42
2017-08-04T03:55:19.014Z,13.24
2017-08-04T03:56:28.973Z,13.37
2017-08-04T03:57:39.245Z,13.36
2017-08-04T03:58:49.198Z,13.31
2017-08-04T03:59:59.471Z,13.24
2017-08-04T04:01:09.756Z,13.21
2017-08-04T04:02:20.029Z,13.27
2017-08-04T04:03:30.301Z,13.24
2017-08-04T04:04:40.258Z,13.31
2017-08-04T04:05:50.535Z,13.3
2017-08-04T04:07:00.494Z,13.26
2017-08-04T04:08:10.455Z,13.3
2017-08-04T04:09:20.408Z,13.39
2017-08-04T04:10:30.681Z,13.36
2017-08-04T04:11:40.960Z,13.33
2017-08-04T04:12:50.597Z,13.4
2017-08-04T04:14:00.560Z,13.31
2017-08-04T04:15:10.205Z,13.4
2017-08-04T04:16:20.473Z,13.31
2017-08-04T04:17:30.428Z,13.36
2017-08-04T04:18:40.700Z,13.36
2017-08-04T04:19:50.965Z,13.37
2017-08-04T04:21:00.604Z,13.39
2017-08-04T04:22:10.885Z,13.49
2017-08-04T04:23:20.838Z,13.36
2017-08-04T04:24:31.108Z,13.3
2017-08-04T04:25:41.370Z,13.4
2017-08-04T04:26:51.325Z,13.33
2017-08-04T04:28:01.279Z,13.45
2017-08-04T04:29:11.554Z,13.33
2017-08-04T04:30:21.825Z,13.36
2017-08-04T04:31:31.778Z,13.37
2017-08-04T04:32:42.049Z,13.33
2017-08-04T04:33:51.715Z,13.42
2017-08-04T04:35:01.989Z,13.46
2017-08-04T04:36:11.638Z,13.36
2017-08-04T04:37:21.599Z,13.43
2017-08-04T04:38:31.553Z,13.36
2017-08-04T04:39:41.822Z,13.47
2017-08-04T04:40:52.110Z,13.39
2017-08-04T04:42:02.376Z,13.5
2017-08-04T04:43:12.333Z,13.42
2017-08-04T04:44:22.602Z,13.45
2017-08-04T04:45:32.245Z,13.47
2017-08-04T04:46:42.207Z,13.58
2017-08-04T04:47:52.158Z,13.52
2017-08-04T04:49:02.430Z,13.46
2017-08-04T04:50:12.384Z,13.5
2017-08-04T04:51:22.676Z,13.5
2017-08-04T04:52:32.634Z,13.5
2017-08-04T04:53:42.906Z,13.52
2017-08-04T04:54:53.173Z,13.52
2017-08-04T04:56:03.126Z,13.5
2017-08-04T04:57:13.079Z,13.65
2017-08-04T04:58:23.358Z,13.58
2017-08-04T04:59:33.628Z,13.65
2017-08-04T05:00:43.897Z,13.62
2017-08-04T05:01:54.169Z,13.78
2017-08-04T05:03:04.441Z,13.65
2017-08-04T05:04:14.714Z,13.68
2017-08-04T05:05:24.982Z,13.7
2017-08-04T05:06:35.250Z,13.7
2017-08-04T05:07:45.522Z,13.79
2017-08-04T05:08:55.487Z,13.8
2017-08-04T05:10:05.756Z,13.75
2017-08-04T05:11:16.054Z,13.83
2017-08-04T05:12:26.332Z,13.85
2017-08-04T05:13:36.598Z,13.93
2017-08-04T05:14:46.876Z,13.86
2017-08-04T05:15:56.836Z,13.82
2017-08-04T05:17:07.114Z,13.85
2017-08-04T05:18:17.382Z,13.86
2017-08-04T05:19:27.656Z,13.85
2017-08-04T05:20:37.619Z,13.94
2017-08-04T05:21:47.573Z,14.01
2017-08-04T05:22:57.840Z,13.93
2017-08-04T05:24:08.111Z,14.08
2017-08-04T05:25:18.065Z,14.05
2017-08-04T05:26:28.335Z,14.13
2017-08-04T05:27:38.603Z,14.11
2017-08-04T05:28:48.580Z,14.15
2017-08-04T05:29:58.538Z,14.16
2017-08-04T05:31:08.501Z,14.25
2017-08-04T05:32:18.775Z,14.33
2017-08-04T05:33:29.043Z,14.34
2017-08-04T05:34:39.315Z,14.38
2017-08-04T05:35:49.587Z,14.45
2017-08-04T05:36:59.856Z,14.44
2017-08-04T05:38:09.515Z,14.38
2017-08-04T05:39:19.790Z,14.45
2017-08-04T05:40:30.063Z,14.53
2017-08-04T05:41:40.331Z,14.49
2017-08-04T05:42:50.287Z,14.48
2017-08-04T05:44:00.596Z,14.55
2017-08-04T05:45:10.868Z,14.68
2017-08-04T05:46:20.822Z,14.58
2017-08-04T05:47:30.464Z,14.71
2017-08-04T05:48:40.737Z,14.73
2017-08-04T05:49:51.008Z,14.87
2017-08-04T05:51:01.290Z,14.81
2017-08-04T05:52:11.558Z,14.96
2017-08-04T05:53:21.837Z,14.94
2017-08-04T05:54:32.109Z,14.96
2017-08-04T05:55:42.070Z,15.1
2017-08-04T05:56:52.350Z,15.12
2017-08-04T05:58:02.628Z,15.11
2017-08-04T05:59:12.279Z,15.17
2017-08-04T06:00:22.553Z,15.15
2017-08-04T06:01:32.829Z,15.17
2017-08-04T06:02:43.105Z,15.22
2017-08-04T06:03:53.404Z,15.18
2017-08-04T06:05:03.365Z,15.33
2017-08-04T06:06:13.640Z,15.33
2017-08-04T06:07:23.917Z,15.43
2017-08-04T06:08:34.187Z,15.44
2017-08-04T06:09:44.148Z,15.33
2017-08-04T06:10:53.802Z,15.48
2017-08-04T06:12:03.448Z,15.62
2017-08-04T06:13:13.732Z,15.67
2017-08-04T06:14:23.689Z,15.66
2017-08-04T06:15:33.963Z,15.76
2017-08-04T06:16:44.233Z,15.81
2017-08-04T06:17:53.893Z,15.87
2017-08-04T06:19:04.166Z,15.92
2017-08-04T06:20:14.463Z,16.05
2017-08-04T06:21:24.425Z,16.05
2017-08-04T06:22:34.389Z,16.17
2017-08-04T06:23:44.359Z,16.36
2017-08-04T06:24:54.312Z,16.54
2017-08-04T06:26:04.273Z,16.54
2017-08-04T06:27:14.546Z,16.59
2017-08-04T06:28:24.502Z,16.62
2017-08-04T06:29:34.779Z,16.69
2017-08-04T06:30:45.059Z,16.8
2017-08-04T06:31:55.334Z,16.87
2017-08-04T06:33:05.609Z,16.91
2017-08-04T06:34:15.252Z,16.94
2017-08-04T06:35:25.522Z,16.98
2017-08-04T06:36:35.808Z,17.09
2017-08-04T06:37:46.082Z,17.22
2017-08-04T06:38:56.357Z,17.17
2017-08-04T06:40:06.314Z,17.13
2017-08-04T06:41:15.962Z,17.16
2017-08-04T06:42:25.922Z,17.27
2017-08-04T06:43:36.195Z,17.3
2017-08-04T06:44:46.470Z,17.37
2017-08-04T06:45:56.741Z,17.32
2017-08-04T06:47:07.016Z,17.35
2017-08-04T06:48:17.287Z,17.41
2017-08-04T06:49:26.944Z,17.38
2017-08-04T06:50:37.217Z,17.44
2017-08-04T06:51:47.491Z,17.39
2017-08-04T06:52:57.768Z,17.5
2017-08-04T06:54:08.040Z,17.49
2017-08-04T06:55:17.680Z,17.59
2017-08-04T06:56:27.322Z,17.6
2017-08-04T06:57:37.593Z,17.65
2017-08-04T06:58:47.558Z,17.59
2017-08-04T06:59:57.832Z,17.66
2017-08-04T07:01:07.797Z,17.71
2017-08-04T07:02:17.758Z,17.65
2017-08-04T07:03:28.040Z,17.66
2017-08-04T07:04:37.997Z,17.65
2017-08-04T07:05:47.963Z,17.66
2017-08-04T07:06:57.609Z,17.79
2017-08-04T07:08:07.886Z,17.86
2017-08-04T07:09:17.537Z,17.9
2017-08-04T07:10:27.496Z,17.88
2017-08-04T07:11:37.459Z,17.95
2017-08-04T07:12:47.105Z,17.93
2017-08-04T07:13:57.060Z,18.08
2017-08-04T07:15:07.031Z,18.13
2017-08-04T07:16:17.305Z,18.23
2017-08-04T07:17:27.583Z,18.19
2017-08-04T07:18:37.581Z,18.09
2017-08-04T07:19:47.854Z,18.13
2017-08-04T07:20:58.130Z,18.18
2017-08-04T07:22:08.091Z,18.31
2017-08-04T07:23:18.369Z,18.28
2017-08-04T07:24:28.644Z,18.43
2017-08-04T07:25:38.915Z,18.48
2017-08-04T07:26:49.182Z,18.43
2017-08-04T07:27:58.510Z,18.49
2017-08-04T07:29:08.786Z,18.55
2017-08-04T07:30:19.062Z,18.6
2017-08-04T07:31:29.348Z,18.64
2017-08-04T07:32:38.995Z,18.68
2017-08-04T07:33:49.269Z,18.73
2017-08-04T07:34:59.575Z,18.79
2017-08-04T07:36:09.534Z,18.76
2017-08-04T07:37:19.810Z,18.78
2017-08-04T07:38:29.765Z,18.85
2017-08-04T07:39:40.040Z,18.86
2017-08-04T07:40:50.311Z,18.86
2017-08-04T07:42:00.590Z,18.89
2017-08-04T07:43:10.550Z,18.91
2017-08-04T07:44:20.823Z,18.92
2017-08-04T07:45:31.110Z,18.83
2017-08-04T07:46:41.387Z,18.89
2017-08-04T07:47:51.682Z,18.88
2017-08-04T07:49:01.968Z,18.81
2017-08-04T07:50:12.243Z,18.88
2017-08-04T07:51:21.968Z,18.68
2017-08-04T07:52:31.799Z,18.73
2017-08-04T07:53:42.202Z,18.76
2017-08-04T07:54:52.594Z,18.7
2017-08-04T07:56:04.492Z,18.53
2017-08-04T07:57:14.982Z,18.52
2017-08-04T07:58:25.335Z,18.49
2017-08-04T07:59:34.983Z,18.45
2017-08-04T08:00:45.265Z,18.52
2017-08-04T08:01:55.537Z,18.51
2017-08-04T08:03:05.819Z,18.45
2017-08-04T08:04:15.467Z,18.49
2017-08-04T08:05:25.746Z,18.37
2017-08-04T08:06:35.746Z,18.42
2017-08-04T08:07:45.705Z,18.24
2017-08-04T08:08:55.988Z,18.3
2017-08-04T08:10:06.260Z,18.26
2017-08-04T08:11:16.218Z,18.19
2017-08-04T08:12:26.499Z,18.13
2017-08-04T08:13:36.461Z,18.15
2017-08-04T08:14:46.752Z,18.18
2017-08-04T08:15:57.025Z,18.09
2017-08-04T08:17:06.983Z,18.09
2017-08-04T08:18:17.266Z,18.12
2017-08-04T08:19:27.552Z,18.08
2017-08-04T08:20:37.833Z,18.06
2017-08-04T08:21:48.110Z,18
2017-08-04T08:22:58.388Z,18.09
2017-08-04T08:24:08.662Z,18.06
2017-08-04T08:25:18.936Z,17.97
2017-08-04T08:26:28.898Z,17.98
2017-08-04T08:27:39.173Z,17.98
2017-08-04T08:28:49.126Z,18
2017-08-04T08:29:58.772Z,18.08
2017-08-04T08:31:11.347Z,18.09
2017-08-04T08:32:21.624Z,18.11
2017-08-04T08:33:31.899Z,18.18
2017-08-04T08:34:42.182Z,18.13
2017-08-04T08:35:52.142Z,18.3
2017-08-04T08:37:02.423Z,18.46
2017-08-04T08:38:12.705Z,18.46
2017-08-04T08:39:22.986Z,18.49
2017-08-04T08:40:32.958Z,18.57
2017-08-04T08:41:43.237Z,18.68
2017-08-04T08:42:53.198Z,18.79
2017-08-04T08:44:03.477Z,18.83
2017-08-04T08:45:13.135Z,18.88
2017-08-04T08:46:23.406Z,18.94
2017-08-04T08:47:33.057Z,19.08
2017-08-04T08:48:43.020Z,19.05
2017-08-04T08:49:52.988Z,19.15
2017-08-04T08:51:03.265Z,19.08
2017-08-04T08:52:12.916Z,19.17
2017-08-04T08:53:23.189Z,19.16
2017-08-04T08:54:32.844Z,19.05
2017-08-04T08:55:43.116Z,19.01
2017-08-04T08:56:53.079Z,18.98
2017-08-04T08:58:02.720Z,19
2017-08-04T08:59:13.007Z,18.92
2017-08-04T09:00:22.976Z,19.01
2017-08-04T09:01:32.933Z,18.91
2017-08-04T09:02:42.588Z,19
2017-08-04T09:03:52.866Z,18.97
2017-08-04T09:05:03.149Z,18.88
2017-08-04T09:06:13.502Z,18.85
2017-08-04T09:07:23.463Z,18.88
2017-08-04T09:08:33.746Z,18.81
2017-08-04T09:09:44.027Z,18.89
2017-08-04T09:10:54.304Z,18.81
2017-08-04T09:12:03.958Z,18.76
2017-08-04T09:13:14.228Z,18.71
2017-08-04T09:14:24.192Z,18.73
2017-08-04T09:15:34.467Z,18.55
2017-08-04T09:16:44.123Z,18.55
2017-08-04T09:17:54.402Z,18.58
2017-08-04T09:19:04.367Z,18.51
2017-08-04T09:20:14.641Z,18.43
2017-08-04T09:21:24.913Z,18.45
2017-08-04T09:22:35.189Z,18.42
2017-08-04T09:23:45.463Z,18.39
2017-08-04T09:24:55.733Z,18.48
2017-08-04T09:26:05.699Z,18.46
2017-08-04T09:27:15.667Z,18.41
2017-08-04T09:28:25.956Z,18.33
2017-08-04T09:29:36.246Z,18.33
2017-08-04T09:30:46.525Z,18.42
2017-08-04T09:31:56.799Z,18.43
2017-08-04T09:33:06.789Z,18.43
2017-08-04T09:34:16.753Z,18.46
2017-08-04T09:35:27.030Z,18.49
2017-08-04T09:36:37.303Z,18.55
2017-08-04T09:37:47.586Z,18.48
2017-08-04T09:38:57.860Z,18.48
2017-08-04T09:40:07.833Z,18.46
2017-08-04T09:41:17.795Z,18.51
2017-08-04T09:42:27.762Z,18.49
2017-08-04T09:43:38.055Z,18.49
2017-08-04T09:44:47.700Z,18.36
2017-08-04T09:45:57.660Z,18.33
2017-08-04T09:47:07.619Z,18.39
2017-08-04T09:48:17.580Z,18.41
2017-08-04T09:49:27.857Z,18.3
2017-08-04T09:50:37.816Z,18.21
2017-08-04T09:51:47.777Z,18.15
2017-08-04T09:52:58.050Z,18.13
2017-08-04T09:54:08.324Z,18.24
2017-08-04T09:55:18.285Z,18.15
2017-08-04T09:56:28.245Z,18.11
2017-08-04T09:57:38.525Z,18.09
2017-08-04T09:58:48.799Z,18.15
2017-08-04T09:59:59.073Z,18.02
2017-08-04T10:01:09.050Z,18.11
2017-08-04T10:02:19.016Z,18.15
2017-08-04T10:03:29.297Z,18.21
2017-08-04T10:04:39.255Z,18.24
2017-08-04T10:05:49.217Z,18.26
2017-08-04T10:06:59.496Z,18.33
2017-08-04T10:08:09.770Z,18.27
2017-08-04T10:09:19.416Z,18.31
2017-08-04T10:10:29.691Z,18.28
2017-08-04T10:11:39.981Z,18.21
2017-08-04T10:12:50.268Z,17.98
2017-08-04T10:14:00.545Z,17.79
2017-08-04T10:15:10.512Z,17.73
2017-08-04T10:16:20.161Z,17.47
2017-08-04T10:17:30.436Z,17.16
2017-08-04T10:18:40.716Z,17.14
2017-08-04T10:19:50.986Z,17.1
2017-08-04T10:21:00.963Z,16.97
2017-08-04T10:22:10.929Z,17.02
2017-08-04T10:23:21.216Z,17.02
2017-08-04T10:24:31.182Z,16.99
2017-08-04T10:25:41.160Z,16.94
2017-08-04T10:26:51.438Z,16.87
2017-08-04T10:28:01.716Z,17.04
2017-08-04T10:29:11.368Z,17.1
2017-08-04T10:30:21.330Z,17.22
2017-08-04T10:31:31.603Z,17.16
2017-08-04T10:32:41.566Z,17.16
2017-08-04T10:33:51.847Z,17.3
2017-08-04T10:35:02.126Z,17.28
2017-08-04T10:36:12.402Z,17.37
2017-08-04T10:37:22.368Z,17.44
2017-08-04T10:38:32.638Z,17.53
2017-08-04T10:39:42.600Z,17.71
2017-08-04T10:40:52.561Z,17.72
2017-08-04T10:42:02.517Z,17.78
2017-08-04T10:43:12.477Z,18.02
2017-08-04T10:44:22.123Z,18.15
2017-08-04T10:45:32.083Z,18.16
2017-08-04T10:46:42.383Z,18.24
2017-08-04T10:47:52.342Z,18.48
2017-08-04T10:49:02.611Z,18.58
2017-08-04T10:50:12.897Z,18.71
2017-08-04T10:51:23.171Z,18.89
2017-08-04T10:52:33.137Z,18.83
2017-08-04T10:53:43.406Z,18.98
2017-08-04T10:54:53.369Z,19.16
2017-08-04T10:56:03.644Z,19.12
2017-08-04T10:57:13.288Z,19.2
2017-08-04T10:58:23.246Z,19.23
2017-08-04T10:59:33.540Z,19.32
2017-08-04T11:00:43.500Z,19.41
2017-08-04T11:01:53.468Z,19.41
2017-08-04T11:03:03.432Z,19.49
2017-08-04T11:04:13.717Z,19.47
2017-08-04T11:05:23.687Z,19.55
2017-08-04T11:06:33.964Z,19.55
2017-08-04T11:07:44.249Z,19.63
2017-08-04T11:08:54.526Z,19.63
2017-08-04T11:10:04.797Z,19.72
2017-08-04T11:11:14.771Z,19.66
2017-08-04T11:12:24.732Z,19.7
2017-08-04T11:13:34.699Z,19.79
2017-08-04T11:14:44.985Z,19.74
2017-08-04T11:15:55.257Z,19.84
2017-08-04T11:17:05.223Z,19.81
2017-08-04T11:18:15.501Z,19.93
2017-08-04T11:19:25.780Z,19.94
2017-08-04T11:20:36.060Z,20.07
2017-08-04T11:21:46.032Z,20.04
2017-08-04T11:22:56.308Z,20.08
2017-08-04T11:24:06.593Z,20.17
2017-08-04T11:25:16.553Z,20.29
2017-08-04T11:26:26.828Z,20.37
2017-08-04T11:27:36.793Z,20.32
2017-08-04T11:28:47.079Z,20.4
2017-08-04T11:29:57.043Z,20.3
2017-08-04T11:31:07.023Z,20.42
2017-08-04T11:32:16.992Z,20.5
2017-08-04T11:33:26.964Z,20.58
2017-08-04T11:34:37.237Z,20.66
2017-08-04T11:35:47.514Z,20.7
2017-08-04T11:36:57.484Z,20.78
2017-08-04T11:38:07.756Z,20.88
2017-08-04T11:39:18.046Z,20.85
2017-08-04T11:40:28.318Z,20.88
2017-08-04T11:41:38.600Z,20.88
2017-08-04T11:42:48.563Z,20.95
2017-08-04T11:43:58.525Z,20.85
2017-08-04T11:45:08.810Z,20.75
2017-08-04T11:46:18.773Z,20.75
2017-08-04T11:47:29.048Z,20.68
2017-08-04T11:48:39.319Z,20.7
2017-08-04T11:49:49.604Z,20.66
2017-08-04T11:50:59.561Z,20.64
2017-08-04T11:52:09.529Z,20.59
2017-08-04T11:53:19.803Z,20.64
2017-08-04T11:54:29.764Z,20.67
2017-08-04T11:55:39.722Z,20.63
2017-08-04T11:56:49.695Z,20.6
2017-08-04T11:57:59.973Z,20.53
2017-08-04T11:59:09.932Z,20.59
2017-08-04T12:00:19.583Z,20.52
2017-08-04T12:01:30.012Z,20.49
2017-08-04T12:02:40.304Z,20.4
2017-08-04T12:03:50.268Z,20.44
2017-08-04T12:05:00.236Z,20.39
2017-08-04T12:06:10.513Z,20.44
2017-08-04T12:07:20.482Z,20.44
2017-08-04T12:08:30.757Z,20.46
2017-08-04T12:09:40.712Z,20.44
2017-08-04T12:10:50.995Z,20.36
2017-08-04T12:12:01.275Z,20.34
2017-08-04T12:13:11.549Z,20.3
2017-08-04T12:14:21.827Z,20.29
2017-08-04T12:15:31.788Z,20.27
2017-08-04T12:16:42.069Z,20.24
2017-08-04T12:17:52.361Z,20.14
2017-08-04T12:19:02.326Z,19.85
2017-08-04T12:20:12.601Z,19.57
2017-08-04T12:21:22.884Z,19.3
2017-08-04T12:22:33.155Z,19.23
2017-08-04T12:23:43.119Z,19.23
2017-08-04T12:24:53.399Z,19.17
2017-08-04T12:26:03.680Z,18.73
2017-08-04T12:27:13.957Z,18.52
2017-08-04T12:28:23.609Z,18.42
2017-08-04T12:29:33.575Z,18.24
2017-08-04T12:30:43.855Z,18.12
2017-08-04T12:31:54.136Z,18.06
2017-08-04T12:33:04.409Z,17.88
2017-08-04T12:34:14.685Z,17.79
2017-08-04T12:35:24.965Z,17.75
2017-08-04T12:36:37.244Z,17.54
2017-08-04T12:37:47.525Z,17.52
2017-08-04T12:38:57.800Z,17.41
2017-08-04T12:40:07.466Z,17.32
2017-08-04T12:41:17.431Z,17.37
2017-08-04T12:42:27.396Z,17.2
2017-08-04T12:43:37.674Z,17.04
2017-08-04T12:44:47.963Z,16.92
2017-08-04T12:45:57.605Z,16.94
2017-08-04T12:47:07.568Z,16.84
2017-08-04T12:48:17.216Z,16.87
2017-08-04T12:49:27.505Z,16.8
2017-08-04T12:50:37.473Z,16.72
2017-08-04T12:51:47.763Z,16.58
2017-08-04T12:52:57.720Z,16.74
2017-08-04T12:54:07.999Z,16.59
2017-08-04T12:55:18.277Z,16.64
2017-08-04T12:56:28.244Z,16.55
2017-08-04T12:57:38.520Z,16.57
2017-08-04T12:58:48.485Z,16.51
2017-08-04T12:59:58.783Z,16.44
2017-08-04T13:01:08.431Z,16.5
2017-08-04T13:02:18.393Z,16.49
2017-08-04T13:03:28.663Z,16.49
2017-08-04T13:04:38.939Z,16.47
2017-08-04T13:05:49.212Z,16.43
2017-08-04T13:06:59.487Z,16.44
2017-08-04T13:08:09.136Z,16.41
2017-08-04T13:09:19.406Z,16.47
2017-08-04T13:10:29.687Z,16.28
2017-08-04T13:11:39.958Z,16.31
2017-08-04T13:12:49.908Z,16.24
2017-08-04T13:14:00.186Z,16.06
2017-08-04T13:15:10.488Z,16.03
2017-08-04T13:16:20.448Z,15.91
2017-08-04T13:17:30.721Z,15.98
2017-08-04T13:18:40.994Z,15.91
2017-08-04T13:19:50.956Z,15.9
2017-08-04T13:21:01.235Z,15.99
2017-08-04T13:22:11.216Z,15.96
2017-08-04T13:23:21.486Z,15.98
2017-08-04T13:24:31.448Z,15.99
2017-08-04T13:25:41.717Z,15.98
2017-08-04T13:26:51.689Z,16
2017-08-04T13:28:01.954Z,15.94
2017-08-04T13:29:12.217Z,15.98
2017-08-04T13:30:21.861Z,15.88
2017-08-04T13:31:32.139Z,15.92
2017-08-04T13:32:42.413Z,15.96
2017-08-04T13:33:52.371Z,15.92
2017-08-04T13:35:02.644Z,16
2017-08-04T13:36:12.613Z,15.96
2017-08-04T13:37:22.887Z,15.9
2017-08-04T13:38:33.160Z,16.05
2017-08-04T13:39:42.805Z,16
2017-08-04T13:40:53.078Z,15.96
2017-08-04T13:42:02.720Z,15.91
2017-08-04T13:43:12.363Z,16.05
2017-08-04T13:44:22.635Z,15.98
2017-08-04T13:45:32.591Z,16.06
2017-08-04T13:46:42.862Z,16.05
2017-08-04T13:47:53.134Z,16.08
2017-08-04T13:49:03.400Z,16.1
2017-08-04T13:50:13.674Z,16.16
2017-08-04T13:51:23.637Z,16.26
2017-08-04T13:52:33.917Z,16.16
2017-08-04T13:53:44.190Z,16.24
2017-08-04T13:54:54.461Z,16.26
2017-08-04T13:56:04.422Z,16.29
2017-08-04T13:57:14.375Z,16.29
2017-08-04T13:58:24.017Z,16.25
2017-08-04T13:59:33.977Z,16.22
2017-08-04T14:00:44.248Z,16.13
2017-08-04T14:01:54.520Z,16.12
2017-08-04T14:03:04.817Z,16.05
2017-08-04T14:04:15.091Z,16.09
2017-08-04T14:05:25.396Z,16
2017-08-04T14:06:35.352Z,15.91
2017-08-04T14:07:45.622Z,15.91
2017-08-04T14:08:55.890Z,15.94
2017-08-04T14:10:05.847Z,15.99
2017-08-04T14:11:16.182Z,15.96
2017-08-04T14:12:26.465Z,16
2017-08-04T14:13:36.733Z,15.96
2017-08-04T14:14:46.692Z,15.88
2017-08-04T14:15:56.962Z,15.94
2017-08-04T14:17:07.240Z,15.85
2017-08-04T14:18:16.902Z,15.85
2017-08-04T14:19:26.860Z,15.91
2017-08-04T14:20:37.135Z,15.83
2017-08-04T14:21:47.399Z,15.88
2017-08-04T14:22:57.668Z,15.84
2017-08-04T14:24:07.621Z,15.83
2017-08-04T14:25:17.580Z,15.87
2017-08-04T14:26:27.220Z,15.88
2017-08-04T14:27:37.496Z,15.83
2017-08-04T14:28:47.781Z,15.84
2017-08-04T14:29:58.063Z,15.88
2017-08-04T14:31:08.332Z,15.87
2017-08-04T14:32:18.288Z,15.92
2017-08-04T14:33:28.565Z,15.92
2017-08-04T14:34:38.522Z,16.06
2017-08-04T14:35:48.802Z,16.08
2017-08-04T14:36:59.080Z,16.06
2017-08-04T14:38:09.367Z,16.18
2017-08-04T14:39:19.635Z,16.22
2017-08-04T14:40:29.906Z,16.21
2017-08-04T14:41:39.861Z,16.21
2017-08-04T14:42:50.131Z,16.22
2017-08-04T14:44:00.088Z,16.25
2017-08-04T14:45:10.359Z,16.24
2017-08-04T14:46:20.324Z,16.36
2017-08-04T14:47:30.277Z,16.28
2017-08-04T14:48:40.552Z,16.28
2017-08-04T14:49:50.823Z,16.41
2017-08-04T14:51:00.780Z,16.44
2017-08-04T14:52:10.752Z,16.43
2017-08-04T14:53:21.021Z,16.55
2017-08-04T14:54:31.297Z,16.46
2017-08-04T14:55:41.576Z,16.47
2017-08-04T14:56:51.536Z,16.49
2017-08-04T14:58:01.809Z,16.46
2017-08-04T14:59:12.080Z,16.55
2017-08-04T15:00:22.036Z,16.44
2017-08-04T15:01:32.307Z,16.4
2017-08-04T15:02:42.581Z,16.49
2017-08-04T15:03:52.850Z,16.54
2017-08-04T15:05:03.138Z,16.4
2017-08-04T15:06:13.090Z,16.4
2017-08-04T15:07:23.360Z,16.32